Terminal Aerodrome Forecast
Issued by NWS Jackson, MS

Home | Current Version | Previous Version | Text Only | Print | Product List | Glossary On
Versions: 1 2 3 4 5 6 7 8 9 10 11 12 13
000
FTUS44 KJAN 260520
TAFGLH
TAF
KGLH 260520Z 2606/2706 VRB04KT P6SM SCT060
     FM261000 36007KT P6SM SCT008 BKN012
     FM261600 01012G20KT P6SM SCT025 SCT060
     FM270000 01011KT P6SM BKN250=

USA.gov is the U.S. government's official web portal to all federal, state and local government web resources and services.